Time;durP1;ratioP1;P1;durP2;ratioP2;P2;SDS_P1;SDS_P2;PMS_P1;PMS_P2;Temp;Humidity;BMP_temperature;BMP_pressure;BME280_temperature;BME280_humidity;BME280_pressure;Samples;Min_cycle;Max_cycle;Signal;HPM_P1;HPM_P2
2022/10/10 00:01:24;;;;;;;9.80;3.90;;;;;;;18.98;63.48;100321.31;5103095;28;20054;-73
2022/10/10 00:03:52;;;;;;;12.50;4.43;;;;;;;18.89;63.70;100334.69;5102221;28;20417;-72
2022/10/10 00:06:20;;;;;;;9.65;2.97;;;;;;;18.87;63.74;100337.00;5099176;28;20099;-71
2022/10/10 00:08:47;;;;;;;16.00;3.67;;;;;;;18.89;63.99;100329.03;5114853;28;20051;-72
2022/10/10 00:11:16;;;;;;;17.58;3.72;;;;;;;18.99;63.54;100334.28;5104319;28;20059;-72
2022/10/10 00:13:43;;;;;;;8.40;4.13;;;;;;;19.06;63.45;100337.41;5107958;28;20056;-72
2022/10/10 00:16:10;;;;;;;8.48;2.97;;;;;;;19.11;63.02;100340.06;5103910;28;20299;-71
2022/10/10 00:18:38;;;;;;;10.13;3.78;;;;;;;19.03;63.27;100337.25;5109577;28;20054;-76
2022/10/10 00:21:06;;;;;;;17.33;3.92;;;;;;;19.09;62.89;100316.91;5110543;28;20047;-76
2022/10/10 00:23:33;;;;;;;6.22;2.75;;;;;;;19.06;63.05;100333.75;5102116;28;20447;-77
2022/10/10 00:26:00;;;;;;;6.43;2.45;;;;;;;19.04;62.88;100325.63;5103873;28;20418;-78
2022/10/10 00:28:37;;;;;;;14.20;3.58;;;;;;;18.97;62.33;100318.81;5101625;28;20059;-74
2022/10/10 00:31:08;;;;;;;8.32;3.13;;;;;;;18.92;63.06;100317.03;5109560;28;20051;-73
2022/10/10 00:33:36;;;;;;;7.68;3.45;;;;;;;18.91;62.41;100321.03;5107335;28;20062;-74
2022/10/10 00:36:04;;;;;;;10.57;3.30;;;;;;;18.79;62.33;100296.28;5101257;28;20050;-76
2022/10/10 00:38:31;;;;;;;7.85;2.53;;;;;;;18.84;62.34;100309.44;5109366;28;20512;-75
2022/10/10 00:40:58;;;;;;;9.60;3.25;;;;;;;18.90;61.89;100319.34;5096929;28;20070;-82
2022/10/10 00:43:26;;;;;;;4.88;2.67;;;;;;;18.97;61.71;100305.50;5109484;28;20060;-79
2022/10/10 00:45:53;;;;;;;7.35;3.38;;;;;;;18.99;61.47;100306.00;5106766;28;20071;-81
2022/10/10 00:48:27;;;;;;;13.60;3.72;;;;;;;18.96;61.48;100312.34;5108159;28;20074;-81
2022/10/10 00:50:57;;;;;;;7.00;2.25;;;;;;;19.00;61.60;100309.66;5101037;28;20059;-74
2022/10/10 00:53:29;;;;;;;5.50;2.78;;;;;;;18.51;61.55;100250.69;5105100;28;20054;-74
2022/10/10 00:55:56;;;;;;;11.10;2.90;;;;;;;18.92;61.53;100317.03;5102480;28;20051;-74
2022/10/10 00:58:23;;;;;;;7.20;2.65;;;;;;;18.88;61.30;100313.22;5106967;28;20063;-77
2022/10/10 01:00:51;;;;;;;4.85;2.70;;;;;;;18.68;61.51;100295.00;5098057;28;20061;-78
2022/10/10 01:03:19;;;;;;;10.38;2.85;;;;;;;18.74;61.66;100312.66;5106960;28;20048;-76
2022/10/10 01:05:47;;;;;;;6.03;2.17;;;;;;;18.39;61.55;100247.75;5105954;28;20409;-77
2022/10/10 01:08:16;;;;;;;7.07;2.88;;;;;;;18.70;61.49;100296.34;5101634;28;20058;-79
2022/10/10 01:11:04;;;;;;;7.43;2.23;;;;;;;18.65;61.50;100324.78;5100273;28;20378;-79
2022/10/10 01:14:18;;;;;;;4.38;1.85;;;;;;;18.54;61.64;100295.25;5103795;28;20044;-79
2022/10/10 01:17:00;;;;;;;4.07;1.35;;;;;;;18.41;61.22;100305.63;5102924;28;20059;-78
2022/10/10 01:19:37;;;;;;;2.53;1.70;;;;;;;18.35;61.46;100314.63;5105028;28;20051;-80
2022/10/10 01:22:13;;;;;;;3.65;1.52;;;;;;;18.45;60.79;100297.28;5110512;28;20296;-80
2022/10/10 01:25:07;;;;;;;2.95;1.25;;;;;;;18.42;60.73;100300.78;5111083;28;20055;-82
2022/10/10 01:27:41;;;;;;;3.35;1.45;;;;;;;18.43;60.47;100293.97;5099766;28;20627;-82
2022/10/10 01:30:16;;;;;;;5.43;1.13;;;;;;;18.41;60.09;100304.78;5108052;28;20036;-81
2022/10/10 01:32:49;;;;;;;2.60;0.77;;;;;;;18.43;59.99;100294.81;5095900;28;20080;-81
2022/10/10 01:35:30;;;;;;;3.50;0.90;;;;;;;18.38;59.86;100302.63;5104373;28;20054;-80
2022/10/10 01:38:12;;;;;;;5.32;1.83;;;;;;;18.41;59.39;100302.78;5100131;28;20489;-82
2022/10/10 01:40:45;;;;;;;2.13;0.80;;;;;;;18.50;59.27;100314.06;5104013;28;20047;-79
2022/10/10 01:43:12;;;;;;;2.67;0.80;;;;;;;18.55;58.80;100313.88;5106135;28;20043;-80
2022/10/10 01:45:47;;;;;;;1.63;0.90;;;;;;;18.52;58.82;100294.75;5104886;28;20044;-79
2022/10/10 01:48:22;;;;;;;2.72;1.45;;;;;;;18.64;58.57;100299.69;5102388;28;20434;-82
2022/10/10 01:51:23;;;;;;;6.85;2.38;;;;;;;18.77;58.59;100303.47;5093748;28;20044;-82
2022/10/10 01:53:58;;;;;;;5.70;1.85;;;;;;;18.76;58.50;100296.97;5102094;28;20047;-76
2022/10/10 01:56:34;;;;;;;4.72;1.38;;;;;;;18.65;58.06;100298.50;5099475;28;20052;-76
2022/10/10 01:59:10;;;;;;;2.80;0.90;;;;;;;18.65;58.33;100296.50;5105391;28;20052;-76
2022/10/10 02:01:52;;;;;;;7.30;1.88;;;;;;;18.53;58.21;100281.44;5094446;28;20048;-79
2022/10/10 02:04:31;;;;;;;1.73;1.05;;;;;;;18.32;58.66;100270.88;5099147;28;20094;-80
2022/10/10 02:07:10;;;;;;;6.10;0.90;;;;;;;18.38;58.25;100285.69;5100887;28;20040;-81
2022/10/10 02:09:40;;;;;;;5.22;1.38;;;;;;;18.43;58.47;100293.97;5120971;28;20054;-81
2022/10/10 02:12:11;;;;;;;1.77;0.90;;;;;;;18.44;58.71;100293.63;5110768;28;20138;-82
2022/10/10 02:14:45;;;;;;;4.90;1.55;;;;;;;18.09;58.66;100227.13;5097415;28;20047;-82
2022/10/10 02:17:14;;;;;;;5.45;1.23;;;;;;;18.41;58.67;100288.66;5104711;28;20055;-80
2022/10/10 02:19:45;;;;;;;3.85;1.35;;;;;;;18.47;58.38;100294.97;5102820;28;20039;-78
2022/10/10 02:22:12;;;;;;;3.70;1.80;;;;;;;18.44;58.46;100292.81;5104833;28;20070;-78
2022/10/10 02:24:40;;;;;;;3.45;1.80;;;;;;;18.29;58.56;100279.22;5106524;28;20066;-77
2022/10/10 02:27:31;;;;;;;4.97;2.42;;;;;;;18.38;58.91;100291.34;5100222;28;20052;-77
2022/10/10 02:30:01;;;;;;;9.57;1.50;;;;;;;18.30;58.92;100269.59;5098193;28;20071;-77
2022/10/10 02:32:40;;;;;;;;;;;;;;;18.24;59.20;100283.06;5100461;28;20047;-76
2022/10/10 02:35:12;;;;;;;4.13;2.10;;;;;;;18.46;58.57;100294.13;5097038;28;19920;-78
2022/10/10 02:37:42;;;;;;;8.80;2.42;;;;;;;18.50;58.70;100277.31;5104987;28;20044;-75
2022/10/10 02:40:13;;;;;;;4.43;1.48;;;;;;;18.40;58.66;100272.03;5101153;28;20485;-73
2022/10/10 02:42:40;;;;;;;4.82;1.65;;;;;;;18.64;58.64;100292.03;5108553;28;20407;-74
2022/10/10 02:45:07;;;;;;;3.05;1.63;;;;;;;18.76;58.21;100288.50;5099255;28;20044;-73
2022/10/10 02:47:34;;;;;;;9.45;3.67;;;;;;;18.77;57.93;100283.66;5099232;28;20044;-74
2022/10/10 02:50:02;;;;;;;4.53;1.60;;;;;;;18.38;57.97;100217.81;5100238;28;20055;-74
2022/10/10 02:52:28;;;;;;;3.47;1.65;;;;;;;18.70;58.30;100273.72;5102271;28;20047;-75
2022/10/10 02:54:55;;;;;;;5.97;1.30;;;;;;;18.68;58.17;100272.38;5103932;28;20055;-75
2022/10/10 02:57:22;;;;;;;6.20;1.50;;;;;;;18.64;58.60;100280.72;5101098;28;20048;-80
2022/10/10 02:59:49;;;;;;;2.28;1.33;;;;;;;18.50;58.67;100279.31;5098701;28;20048;-77
2022/10/10 03:02:15;;;;;;;5.03;2.08;;;;;;;18.48;58.64;100279.63;5107595;28;20058;-78
2022/10/10 03:04:43;;;;;;;4.35;1.52;;;;;;;18.44;58.82;100273.00;5103871;28;20509;-77
2022/10/10 03:07:10;;;;;;;6.25;1.27;;;;;;;18.33;59.14;100269.75;5104437;28;20085;-78
2022/10/10 03:09:37;;;;;;;1.83;1.08;;;;;;;18.11;59.51;100265.16;5104618;28;20481;-77
2022/10/10 03:12:04;;;;;;;7.18;1.25;;;;;;;17.96;59.73;100272.22;5107213;28;20055;-76
2022/10/10 03:14:31;;;;;;;8.98;2.75;;;;;;;17.81;60.73;100288.84;5104433;28;20067;-76
2022/10/10 03:17:00;;;;;;;4.38;1.55;;;;;;;17.37;61.42;100251.38;5112898;28;20062;-76
2022/10/10 03:19:27;;;;;;;4.55;1.75;;;;;;;17.22;62.51;100252.69;5122517;28;20047;-76
2022/10/10 03:21:53;;;;;;;2.55;1.38;;;;;;;17.06;63.39;100249.56;5119534;28;20059;-75
2022/10/10 03:24:20;;;;;;;3.35;1.48;;;;;;;16.95;63.57;100256.69;5123468;27;20391;-76
2022/10/10 03:26:47;;;;;;;3.30;1.80;;;;;;;16.85;63.65;100240.06;5107497;28;20506;-76
2022/10/10 03:29:14;;;;;;;8.07;1.50;;;;;;;16.96;63.78;100262.00;5108175;28;20052;-75
2022/10/10 03:31:40;;;;;;;2.97;0.82;;;;;;;16.91;64.58;100269.78;5106482;28;20375;-76
2022/10/10 03:34:07;;;;;;;2.15;0.88;;;;;;;16.79;65.34;100260.00;5109836;28;20064;-76
2022/10/10 03:36:34;;;;;;;0.85;0.60;;;;;;;16.72;66.15;100253.97;5111662;28;20047;-77
2022/10/10 03:39:01;;;;;;;1.70;1.23;;;;;;;16.58;65.94;100228.75;5103984;28;20413;-77
2022/10/10 03:41:28;;;;;;;2.53;0.90;;;;;;;16.58;66.55;100237.22;5109934;28;20052;-77
2022/10/10 03:43:55;;;;;;;0.85;0.68;;;;;;;16.65;66.59;100250.81;5113857;27;20083;-80
2022/10/10 03:46:22;;;;;;;9.05;1.02;;;;;;;16.72;66.79;100253.97;5110773;28;20063;-79
2022/10/10 03:48:49;;;;;;;0.95;0.50;;;;;;;16.75;66.76;100255.31;5110787;28;20058;-79
2022/10/10 03:51:16;;;;;;;2.22;1.52;;;;;;;16.77;66.64;100251.03;5111304;28;20054;-75
2022/10/10 03:53:42;;;;;;;2.65;1.00;;;;;;;16.77;66.61;100238.91;5103131;28;20524;-75
2022/10/10 03:56:09;;;;;;;2.28;1.10;;;;;;;16.79;66.62;100243.06;5109820;28;20052;-78
2022/10/10 03:58:36;;;;;;;3.92;1.92;;;;;;;16.90;66.56;100254.03;5100846;28;20056;-79
2022/10/10 04:01:04;;;;;;;4.88;1.85;;;;;;;17.04;66.33;100254.69;5110316;28;20047;-78
2022/10/10 04:03:31;;;;;;;3.22;2.85;;;;;;;16.84;66.89;100222.34;5111100;28;20043;-78
2022/10/10 04:05:57;;;;;;;1.63;1.25;;;;;;;17.05;66.85;100250.72;5112045;28;20070;-78
2022/10/10 04:08:25;;;;;;;4.18;2.45;;;;;;;17.11;66.48;100249.38;5102658;28;20047;-79
2022/10/10 04:10:53;;;;;;;3.38;1.90;;;;;;;17.12;66.43;100236.94;5105513;28;20036;-79
2022/10/10 04:13:21;;;;;;;3.75;1.90;;;;;;;16.88;66.59;100212.03;5107313;28;20048;-85
2022/10/10 04:15:50;;;;;;;2.45;1.13;;;;;;;16.99;66.45;100243.56;5100093;28;20059;-77
2022/10/10 04:18:17;;;;;;;6.43;1.42;;;;;;;16.89;66.23;100212.88;5104937;28;20631;-75
2022/10/10 04:20:44;;;;;;;3.75;1.30;;;;;;;16.97;66.43;100243.09;5108464;28;20047;-76
2022/10/10 04:23:11;;;;;;;4.32;1.20;;;;;;;17.13;65.63;100247.09;5106783;28;20438;-77
2022/10/10 04:25:38;;;;;;;5.32;1.50;;;;;;;17.33;65.06;100245.56;5106674;28;20052;-74
2022/10/10 04:28:05;;;;;;;4.15;2.25;;;;;;;17.34;65.59;100255.69;5100214;28;20459;-73
2022/10/10 04:30:33;;;;;;;1.83;1.10;;;;;;;17.29;65.80;100255.84;5107664;28;20445;-75
2022/10/10 04:33:00;;;;;;;7.30;1.50;;;;;;;17.21;65.43;100234.13;5104788;28;20055;-85
2022/10/10 04:35:28;;;;;;;3.20;1.58;;;;;;;17.22;65.51;100228.13;5117350;27;20043;-82
2022/10/10 04:37:54;;;;;;;4.93;1.33;;;;;;;17.12;66.14;100236.94;5102829;28;20047;-77
2022/10/10 04:40:21;;;;;;;2.92;1.65;;;;;;;17.05;66.39;100253.53;5107569;28;20059;-76
2022/10/10 04:42:53;;;;;;;7.28;1.55;;;;;;;16.84;67.26;100238.44;5106998;28;20051;-75
2022/10/10 04:45:20;;;;;;;4.20;1.65;;;;;;;16.65;67.67;100239.53;5101812;28;20071;-76
2022/10/10 04:47:47;;;;;;;3.10;1.52;;;;;;;16.42;68.70;100223.91;5106611;28;20051;-80
2022/10/10 04:50:14;;;;;;;6.93;1.98;;;;;;;16.34;69.06;100231.16;5105822;28;20044;-80
2022/10/10 04:52:41;;;;;;;2.58;1.30;;;;;;;16.51;68.84;100248.13;5111129;28;20044;-79
2022/10/10 04:55:07;;;;;;;4.38;1.65;;;;;;;16.49;68.68;100244.81;5110558;28;20048;-79
2022/10/10 04:57:34;;;;;;;2.03;1.00;;;;;;;16.35;68.69;100219.56;5096886;28;20060;-80
2022/10/10 05:00:03;;;;;;;2.92;1.30;;;;;;;16.67;69.06;100261.75;5106481;28;20054;-81
2022/10/10 05:02:30;;;;;;;3.25;1.95;;;;;;;16.76;68.55;100255.00;5103388;28;20040;-77
2022/10/10 05:04:57;;;;;;;6.25;2.47;;;;;;;16.94;68.05;100266.31;5103451;28;20051;-77
2022/10/10 05:07:23;;;;;;;5.07;1.40;;;;;;;16.73;69.03;100247.16;5103184;28;20482;-76
2022/10/10 05:09:50;;;;;;;1.73;0.98;;;;;;;16.62;69.45;100234.56;5100888;28;20043;-75
2022/10/10 05:12:17;;;;;;;1.60;1.15;;;;;;;16.67;69.43;100234.38;5106383;28;20055;-81
2022/10/10 05:14:44;;;;;;;1.98;1.58;;;;;;;16.75;69.14;100239.25;5109355;28;20039;-78
2022/10/10 05:17:14;;;;;;;4.78;1.42;;;;;;;16.97;69.01;100254.38;5104512;28;20052;-79
2022/10/10 05:19:41;;;;;;;1.95;1.25;;;;;;;16.90;69.03;100240.75;5104906;28;20048;-79
2022/10/10 05:22:08;;;;;;;3.78;1.70;;;;;;;16.79;69.84;100236.59;5103508;28;20054;-78
2022/10/10 05:24:35;;;;;;;3.20;1.40;;;;;;;16.85;69.59;100234.44;5104229;28;20056;-80
2022/10/10 05:27:01;;;;;;;5.85;0.82;;;;;;;16.75;70.00;100239.25;5106576;28;20050;-76
2022/10/10 05:29:28;;;;;;;5.88;0.90;;;;;;;16.55;70.93;100226.59;5101265;28;20082;-76
2022/10/10 05:31:55;;;;;;;2.33;1.10;;;;;;;16.50;71.41;100248.44;5104750;28;20494;-77
2022/10/10 05:34:22;;;;;;;3.40;1.30;;;;;;;16.25;72.62;100239.59;5107290;28;20044;-76
2022/10/10 05:36:49;;;;;;;4.35;2.50;;;;;;;16.02;73.66;100223.94;5109928;28;20046;-77
2022/10/10 05:39:16;;;;;;;1.77;1.08;;;;;;;15.94;74.78;100236.00;5105659;27;20056;-83
2022/10/10 05:41:43;;;;;;;1.73;1.05;;;;;;;15.73;75.14;100221.66;5102648;28;20054;-78
2022/10/10 05:44:10;;;;;;;0.32;0.32;;;;;;;15.81;75.66;100223.69;5097655;28;20056;-80
2022/10/10 05:46:37;;;;;;;3.47;1.00;;;;;;;15.78;76.00;100225.16;5099772;28;20055;-81
2022/10/10 05:49:04;;;;;;;0.80;0.60;;;;;;;15.67;76.05;100229.41;5099613;28;20530;-80
2022/10/10 05:51:31;;;;;;;1.13;0.77;;;;;;;15.73;76.74;100222.47;5105953;28;20040;-83
2022/10/10 05:53:58;;;;;;;1.08;0.40;;;;;;;15.79;77.01;100249.31;5101139;27;20055;-84
2022/10/10 05:56:24;;;;;;;3.38;1.40;;;;;;;15.71;76.97;100235.22;5103221;28;20044;-78
2022/10/10 05:58:51;;;;;;;9.30;1.50;;;;;;;15.82;77.02;100243.06;5107646;28;20056;-78
2022/10/10 06:01:18;;;;;;;0.52;0.52;;;;;;;15.93;76.73;100240.81;5101012;28;20051;-76
2022/10/10 06:03:51;;;;;;;4.05;1.02;;;;;;;16.00;76.75;100241.16;5099041;28;20497;-84
2022/10/10 06:06:18;;;;;;;0.60;0.60;;;;;;;15.98;76.57;100248.28;5099321;28;20048;-90
2022/10/10 06:08:45;;;;;;;1.45;0.80;;;;;;;16.02;76.52;100229.56;5103586;28;20056;-87
2022/10/10 06:11:12;;;;;;;0.68;0.68;;;;;;;15.92;76.54;100207.31;5096472;28;20036;-86
2022/10/10 06:13:38;;;;;;;1.90;1.13;;;;;;;15.99;76.47;100224.56;5098793;28;20048;-84
2022/10/10 06:16:05;;;;;;;2.45;1.33;;;;;;;15.94;76.78;100227.56;5097910;28;20056;-82
2022/10/10 06:18:32;;;;;;;2.25;0.82;;;;;;;16.00;76.52;100229.91;5103523;28;20060;-82
2022/10/10 06:21:04;;;;;;;1.65;0.70;;;;;;;15.97;76.86;100221.28;5108868;28;20043;-84
2022/10/10 06:23:32;;;;;;;2.17;1.02;;;;;;;15.88;77.10;100230.50;5102832;28;20046;-92
2022/10/10 06:25:59;;;;;;;2.35;1.77;;;;;;;16.07;77.00;100249.16;5104365;28;20090;-88
2022/10/10 06:28:25;;;;;;;1.30;1.23;;;;;;;15.94;77.57;100236.00;5101182;28;20048;-83
2022/10/10 06:30:52;;;;;;;1.10;0.73;;;;;;;16.09;77.35;100263.72;5099911;28;20664;-86
2022/10/10 06:33:19;;;;;;;2.20;1.77;;;;;;;16.04;77.01;100241.34;5104294;28;20054;-89
2022/10/10 06:35:47;;;;;;;1.35;0.90;;;;;;;15.76;77.16;100190.88;5100843;28;20047;-88
2022/10/10 06:38:15;;;;;;;2.90;1.38;;;;;;;16.20;77.45;100256.63;5103185;28;20055;-89
2022/10/10 06:40:43;;;;;;;1.80;0.95;;;;;;;16.16;77.37;100258.44;5108135;28;20048;-87
2022/10/10 06:43:12;;;;;;;3.53;2.28;;;;;;;16.21;77.21;100255.50;5106510;28;20121;-87
2022/10/10 06:45:41;;;;;;;4.60;1.55;;;;;;;16.35;76.63;100261.03;5101088;28;20047;-88
2022/10/10 06:48:08;;;;;;;0.80;0.80;;;;;;;16.34;76.74;100254.56;5106478;28;20054;-88
2022/10/10 06:50:36;;;;;;;3.78;2.10;;;;;;;16.24;76.62;100225.81;5100406;28;20483;-90
2022/10/10 06:53:04;;;;;;;3.08;1.17;;;;;;;16.63;76.06;100253.13;5098079;28;20051;-87
2022/10/10 06:55:31;;;;;;;1.77;1.55;;;;;;;16.21;75.96;100201.97;5094151;28;20047;-87
2022/10/10 06:57:57;;;;;;;3.22;1.60;;;;;;;16.48;76.20;100259.25;5098455;28;20126;-87
2022/10/10 07:00:24;;;;;;;2.00;1.27;;;;;;;16.32;76.63;100245.59;5100331;28;20059;-87
2022/10/10 07:02:51;;;;;;;0.73;0.57;;;;;;;16.49;76.58;100260.91;5108233;28;20044;-89
2022/10/10 07:05:19;;;;;;;3.65;1.63;;;;;;;16.57;76.06;100262.91;5105097;28;20044;-88
2022/10/10 07:07:45;;;;;;;3.42;1.95;;;;;;;16.40;75.90;100218.56;5104344;28;20048;-80
2022/10/10 07:10:14;;;;;;;2.10;0.82;;;;;;;16.53;75.79;100247.78;5102173;28;20059;-90
2022/10/10 07:12:41;;;;;;;5.60;2.38;;;;;;;16.68;75.91;100285.97;5103078;28;20255;-87
2022/10/10 07:15:17;;;;;;;4.32;1.80;;;;;;;16.66;75.66;100268.56;5098853;28;20059;-86
2022/10/10 07:17:45;;;;;;;4.50;1.85;;;;;;;16.98;74.87;100287.88;5098775;28;20758;-86
2022/10/10 07:20:18;;;;;;;6.53;2.50;;;;;;;16.83;74.81;100270.63;5102487;28;20410;-86
2022/10/10 07:22:45;;;;;;;4.18;1.55;;;;;;;17.11;74.78;100296.53;5108050;28;20055;-86
2022/10/10 07:25:12;;;;;;;2.63;1.60;;;;;;;16.99;74.79;100285.88;5107466;28;20075;-86
2022/10/10 07:27:39;;;;;;;6.72;1.98;;;;;;;17.17;74.68;100310.16;5109116;28;20058;-84
2022/10/10 07:30:06;;;;;;;5.95;1.77;;;;;;;17.08;74.06;100283.91;5107273;28;20058;-86
2022/10/10 07:32:33;;;;;;;7.03;2.10;;;;;;;17.19;74.20;100292.88;5107261;28;20051;-86
2022/10/10 07:35:00;;;;;;;7.13;2.72;;;;;;;17.28;73.72;100291.72;5109524;28;20054;-86
2022/10/10 07:37:27;;;;;;;7.30;1.90;;;;;;;17.51;73.71;100325.44;5103926;28;20058;-83
2022/10/10 07:39:54;;;;;;;2.10;1.35;;;;;;;17.40;73.33;100304.31;5102778;28;20055;-85
2022/10/10 07:42:20;;;;;;;5.60;2.85;;;;;;;17.35;73.61;100316.63;5106414;28;20067;-88
2022/10/10 07:44:47;;;;;;;10.13;2.97;;;;;;;17.64;73.80;100327.25;5099267;28;20047;-86
2022/10/10 07:47:14;;;;;;;9.98;3.97;;;;;;;17.74;73.75;100272.38;5100332;28;20063;-86
2022/10/10 07:49:41;;;;;;;9.27;8.77;;;;;;;18.57;72.60;100316.38;5102740;28;20056;-87
2022/10/10 07:52:07;;;;;;;8.82;8.32;;;;;;;18.33;72.06;100300.00;5109254;28;20043;-86
2022/10/10 07:54:34;;;;;;;12.38;11.68;;;;;;;18.35;72.07;100308.97;5098226;28;20069;-86
2022/10/10 07:57:01;;;;;;;9.70;9.02;;;;;;;18.29;72.00;100305.53;5103030;28;20046;-90
2022/10/10 07:59:28;;;;;;;10.07;9.07;;;;;;;18.19;71.57;100284.09;5099551;28;20062;-83
2022/10/10 08:01:55;;;;;;;9.43;8.82;;;;;;;18.16;71.55;100273.47;5106993;28;20397;-83
2022/10/10 08:04:22;;;;;;;10.98;10.07;;;;;;;18.42;71.39;100304.44;5117237;28;20116;-84
2022/10/10 08:06:49;;;;;;;10.18;9.48;;;;;;;18.31;71.46;100285.38;5117460;28;20060;-82
2022/10/10 08:09:16;;;;;;;10.70;9.57;;;;;;;18.58;71.70;100315.19;5107014;28;20047;-80
2022/10/10 08:11:43;;;;;;;10.77;9.77;;;;;;;18.64;71.06;100311.84;5102267;27;20047;-82
2022/10/10 08:14:09;;;;;;;9.90;9.00;;;;;;;18.94;70.71;100312.69;5109007;28;20055;-83
2022/10/10 08:16:36;;;;;;;10.90;9.93;;;;;;;19.00;69.96;100321.78;5103284;28;20063;-77
2022/10/10 08:19:03;;;;;;;10.25;9.50;;;;;;;18.97;70.03;100313.97;5101612;28;20060;-77
2022/10/10 08:21:31;;;;;;;11.95;10.85;;;;;;;19.17;69.79;100335.00;5096450;28;20048;-78
2022/10/10 08:23:58;;;;;;;10.98;10.20;;;;;;;19.17;69.55;100329.34;5103513;28;20082;-77
2022/10/10 08:26:25;;;;;;;13.27;12.15;;;;;;;19.33;69.25;100326.72;5095070;28;20055;-78
2022/10/10 08:28:51;;;;;;;10.60;8.57;;;;;;;19.59;68.95;100335.84;5101513;28;20651;-77
2022/10/10 08:31:20;;;;;;;10.93;9.82;;;;;;;19.64;68.41;100343.31;5103448;27;20051;-77
2022/10/10 08:33:49;;;;;;;11.57;10.57;;;;;;;19.64;68.15;100346.16;5103505;28;20458;-77
2022/10/10 08:36:23;;;;;;;12.27;10.93;;;;;;;19.40;68.09;100344.00;5100942;28;20291;-78
2022/10/10 08:38:55;;;;;;;14.25;10.68;;;;;;;19.46;68.04;100351.13;5102764;28;20048;-78
2022/10/10 08:41:28;;;;;;;14.98;10.85;;;;;;;19.62;67.94;100346.47;5093685;28;20510;-77
2022/10/10 08:44:03;;;;;;;12.05;10.75;;;;;;;19.59;67.84;100352.84;5101358;28;20059;-78
2022/10/10 08:47:04;;;;;;;15.90;12.23;;;;;;;19.52;67.62;100355.41;5101503;28;20066;-78
2022/10/10 08:49:45;;;;;;;12.65;11.40;;;;;;;19.65;68.08;100361.97;5085085;28;20055;-78
2022/10/10 08:52:18;;;;;;;13.20;11.82;;;;;;;19.96;67.41;100332.34;5107653;28;20054;-77
2022/10/10 08:54:47;;;;;;;21.42;13.75;;;;;;;20.06;66.80;100365.91;5118681;28;20055;-79
2022/10/10 08:57:26;;;;;;;10.25;9.23;;;;;;;19.74;67.51;100353.41;5117371;28;20063;-78
2022/10/10 09:00:00;;;;;;;12.75;11.45;;;;;;;19.58;67.32;100345.50;5098255;28;20060;-77
2022/10/10 09:02:44;;;;;;;10.82;9.93;;;;;;;19.34;67.83;100368.00;5110606;28;20052;-79
2022/10/10 09:05:51;;;;;;;14.63;13.18;;;;;;;18.95;68.54;100378.59;5105788;28;20052;-78
2022/10/10 09:08:36;;;;;;;16.15;13.75;;;;;;;18.72;69.42;100380.88;5097108;28;20052;-77
2022/10/10 09:11:33;;;;;;;14.63;12.60;;;;;;;18.73;69.47;100399.50;5105929;28;20052;-78
2022/10/10 09:14:30;;;;;;;11.27;10.52;;;;;;;18.50;70.37;100389.59;5094248;28;20079;-78
2022/10/10 09:17:17;;;;;;;12.75;11.57;;;;;;;18.51;70.51;100394.06;5081458;27;20048;-77
2022/10/10 09:20:14;;;;;;;15.95;14.55;;;;;;;18.20;71.42;100390.31;5102381;28;20052;-78
2022/10/10 09:23:24;;;;;;;13.98;12.18;;;;;;;18.24;71.26;100365.88;5101777;28;20071;-77
2022/10/10 09:26:03;;;;;;;11.05;10.15;;;;;;;18.19;72.01;100374.53;5099520;28;20059;-76
2022/10/10 09:28:57;;;;;;;12.10;11.20;;;;;;;17.98;72.82;100384.88;5103025;28;20052;-78
2022/10/10 09:31:42;;;;;;;12.38;11.23;;;;;;;18.12;72.27;100382.72;5103234;28;20130;-78
2022/10/10 09:34:47;;;;;;;14.05;12.52;;;;;;;18.12;72.03;100376.19;5106368;28;20063;-78
2022/10/10 09:37:23;;;;;;;11.07;10.25;;;;;;;18.23;72.11;100389.66;5094633;28;20070;-78
2022/10/10 09:40:33;;;;;;;11.05;10.25;;;;;;;18.01;72.93;100381.38;5105103;28;20397;-77
2022/10/10 09:43:19;;;;;;;11.93;11.23;;;;;;;17.84;73.70;100390.69;5103130;28;20386;-78
2022/10/10 09:45:51;;;;;;;10.65;9.75;;;;;;;17.95;73.41;100385.56;5102914;28;20130;-77
2022/10/10 09:48:24;;;;;;;10.70;9.90;;;;;;;17.94;73.43;100390.38;5107535;28;20512;-77
2022/10/10 09:50:51;;;;;;;12.30;11.13;;;;;;;17.93;73.49;100388.72;5105674;28;20131;-79
2022/10/10 09:53:19;;;;;;;13.00;11.95;;;;;;;17.92;73.65;100389.06;5101920;28;20043;-78
2022/10/10 09:55:48;;;;;;;12.20;11.30;;;;;;;18.17;73.10;100399.47;5096918;28;20052;-78
2022/10/10 09:58:27;;;;;;;11.32;10.43;;;;;;;17.99;73.90;100393.03;5104650;27;20047;-77
2022/10/10 10:01:22;;;;;;;13.50;12.50;;;;;;;17.92;74.00;100391.88;5094629;28;20062;-77
2022/10/10 10:04:11;;;;;;;17.65;16.30;;;;;;;18.01;73.93;100401.16;5096861;28;20051;-77
2022/10/10 10:07:16;;;;;;;23.00;21.00;;;;;;;18.03;73.62;100407.31;5102074;28;20042;-78
2022/10/10 10:09:50;;;;;;;30.60;28.55;;;;;;;17.84;73.64;100385.06;5090268;28;20069;-77
2022/10/10 10:12:23;;;;;;;13.35;5.75;;;;;;;18.07;73.06;100411.13;5104146;28;20046;-77
2022/10/10 10:14:57;;;;;;;8.68;4.63;;;;;;;18.13;73.46;100406.16;5100167;27;20047;-77
2022/10/10 10:17:24;;;;;;;9.32;5.07;;;;;;;17.94;73.94;100389.53;5096767;28;20047;-76
2022/10/10 10:19:51;;;;;;;11.02;4.45;;;;;;;17.98;74.23;100387.69;5102710;28;20047;-76
2022/10/10 10:22:34;;;;;;;7.35;4.97;;;;;;;18.17;74.29;100405.13;5101041;28;20048;-77
2022/10/10 10:25:26;;;;;;;8.23;5.20;;;;;;;18.16;74.53;100420.44;5102666;28;20055;-77
2022/10/10 10:28:11;;;;;;;10.48;4.95;;;;;;;18.21;74.54;100423.06;5106188;28;20059;-76
2022/10/10 10:30:39;;;;;;;12.27;6.10;;;;;;;18.15;74.54;100399.00;5097503;28;20081;-76
2022/10/10 10:33:24;;;;;;;14.63;5.95;;;;;;;18.38;74.39;100422.22;5105391;28;20589;-77
2022/10/10 10:36:50;;;;;;;13.88;6.28;;;;;;;18.45;74.71;100427.34;5100828;28;20058;-76
2022/10/10 10:39:54;;;;;;;10.18;5.97;;;;;;;18.53;74.94;100423.69;5067687;28;20520;-77
2022/10/10 10:42:21;;;;;;;12.27;6.75;;;;;;;18.73;74.48;100433.44;5103690;28;20047;-77
2022/10/10 10:45:15;;;;;;;13.52;6.18;;;;;;;18.65;75.00;100422.97;5096954;28;20493;-77
2022/10/10 10:48:23;;;;;;;10.55;7.35;;;;;;;18.66;75.12;100428.28;5099846;28;20066;-76
2022/10/10 10:50:58;;;;;;;14.07;5.95;;;;;;;18.61;75.25;100407.84;5094074;28;20052;-78
2022/10/10 10:53:49;;;;;;;15.65;7.20;;;;;;;18.63;75.47;100419.63;5103714;28;20051;-78
2022/10/10 10:56:59;;;;;;;18.20;11.88;;;;;;;18.54;75.55;100394.22;5106015;28;20069;-77
2022/10/10 11:00:09;;;;;;;25.38;22.98;;;;;;;18.80;75.53;100418.78;5105326;28;20051;-78
2022/10/10 11:03:04;;;;;;;18.55;7.00;;;;;;;18.81;75.68;100429.75;5101384;28;20121;-78
2022/10/10 11:06:02;;;;;;;12.40;7.23;;;;;;;18.63;76.13;100417.66;5099237;28;20043;-77
2022/10/10 11:08:32;;;;;;;12.52;7.10;;;;;;;18.73;76.23;100426.94;5102573;28;20300;-78
2022/10/10 11:11:25;;;;;;;;;;;;;;;18.64;76.86;100426.97;5103173;28;20149;-78
2022/10/10 11:14:20;;;;;;;22.52;8.35;;;;;;;18.68;76.52;100430.78;5100291;28;19920;-78
2022/10/10 11:17:10;;;;;;;19.13;10.57;;;;;;;18.73;76.61;100435.44;5097477;28;20511;-78
2022/10/10 11:19:55;;;;;;;;;;;;;;;18.82;76.78;100439.91;5101231;28;20047;-77
2022/10/10 11:22:33;;;;;;;17.08;9.52;;;;;;;18.94;75.93;100437.19;5101011;28;19920;-78
2022/10/10 11:25:22;;;;;;;21.83;11.65;;;;;;;19.05;75.77;100440.47;5100798;28;20051;-78
2022/10/10 11:28:19;;;;;;;28.73;24.27;;;;;;;19.03;75.97;100425.81;5103126;28;20130;-77
2022/10/10 11:30:55;;;;;;;36.78;33.20;;;;;;;19.12;75.67;100432.28;5097550;28;20505;-79
2022/10/10 11:33:29;;;;;;;26.85;24.13;;;;;;;19.22;75.58;100427.41;5106257;28;21804;-78
2022/10/10 11:36:05;;;;;;;26.98;23.65;;;;;;;19.20;75.99;100432.56;5099910;28;20047;-77
2022/10/10 11:38:43;;;;;;;26.92;23.25;;;;;;;19.17;75.66;100434.91;5104607;28;20443;-78
2022/10/10 11:41:31;;;;;;;23.13;20.23;;;;;;;19.14;75.97;100457.41;5101322;28;20051;-79
2022/10/10 11:44:13;;;;;;;26.85;23.92;;;;;;;18.91;76.37;100437.88;5108503;28;20055;-78
2022/10/10 11:47:04;;;;;;;26.67;23.25;;;;;;;19.09;76.62;100452.75;5102606;28;20075;-77
2022/10/10 11:50:00;;;;;;;30.20;25.58;;;;;;;19.07;76.72;100448.59;5106109;28;20062;-77